createdAt,value
2022-11-05T00:00:36.752Z,22.68
2022-11-05T00:03:22.039Z,23.41
2022-11-05T00:06:11.556Z,21.90
2022-11-05T00:08:58.088Z,21.98
2022-11-05T00:11:44.961Z,22.75
2022-11-05T00:14:30.817Z,22.03
2022-11-05T00:16:57.564Z,22.53
2022-11-05T00:19:25.020Z,21.79
2022-11-05T00:22:10.185Z,24.21
2022-11-05T00:24:55.400Z,23.34
2022-11-05T00:27:22.504Z,22.04
2022-11-05T00:29:49.151Z,22.26
2022-11-05T00:32:15.904Z,23.90
2022-11-05T00:34:42.662Z,24.13
2022-11-05T00:37:10.015Z,25.33
2022-11-05T00:39:36.914Z,24.95
2022-11-05T00:42:22.345Z,23.27
2022-11-05T00:45:01.191Z,22.96
2022-11-05T00:47:46.629Z,25.33
2022-11-05T00:50:13.676Z,24.87
2022-11-05T00:52:55.605Z,24.07
2022-11-05T00:55:28.356Z,26.94
2022-11-05T00:57:56.686Z,25.56
2022-11-05T01:00:26.745Z,27.86
2022-11-05T01:02:54.065Z,24.75
2022-11-05T01:05:20.893Z,26.06
2022-11-05T01:07:47.609Z,26.26
2022-11-05T01:10:14.310Z,26.60
2022-11-05T01:12:41.609Z,28.34
2022-11-05T01:15:09.050Z,25.38
2022-11-05T01:17:35.714Z,24.86
2022-11-05T01:20:02.479Z,24.59
2022-11-05T01:22:29.130Z,23.63
2022-11-05T01:24:55.890Z,26.22
2022-11-05T01:27:22.659Z,23.95
2022-11-05T01:29:49.349Z,25.00
2022-11-05T01:32:16.084Z,25.46
2022-11-05T01:34:43.033Z,24.48
2022-11-05T01:37:09.717Z,23.87
2022-11-05T01:39:36.431Z,24.64
2022-11-05T01:42:03.221Z,23.35
2022-11-05T01:44:52.447Z,25.68
2022-11-05T01:47:34.324Z,23.79
2022-11-05T01:50:06.900Z,24.11
2022-11-05T01:52:35.671Z,24.24
2022-11-05T01:55:04.389Z,25.04
2022-11-05T01:57:32.704Z,23.85
2022-11-05T02:00:01.018Z,23.53
2022-11-05T02:02:30.967Z,24.21
2022-11-05T02:05:03.461Z,22.34
2022-11-05T02:07:31.033Z,22.97
2022-11-05T02:10:02.714Z,23.81
2022-11-05T02:12:30.376Z,24.39
2022-11-05T02:14:58.378Z,22.79
2022-11-05T02:18:03.622Z,22.36
2022-11-05T02:20:38.669Z,23.16
2022-11-05T02:23:26.546Z,22.14
2022-11-05T02:26:26.014Z,21.89
2022-11-05T02:29:17.480Z,21.56
2022-11-05T02:32:13.608Z,22.17
2022-11-05T02:35:18.945Z,22.26
2022-11-05T02:37:53.240Z,22.11
2022-11-05T02:40:38.692Z,24.00
2022-11-05T02:43:22.345Z,24.84
2022-11-05T02:46:15.076Z,24.89
2022-11-05T02:48:58.590Z,26.41
2022-11-05T02:51:54.318Z,23.44
2022-11-05T02:54:36.562Z,22.70
2022-11-05T02:57:04.283Z,23.26
2022-11-05T02:59:31.325Z,24.42
2022-11-05T03:01:59.919Z,25.92
2022-11-05T03:04:27.886Z,25.30
2022-11-05T03:07:45.291Z,24.39
2022-11-05T03:10:27.947Z,23.93
2022-11-05T03:13:14.350Z,23.47
2022-11-05T03:16:04.350Z,22.05
2022-11-05T03:18:40.056Z,23.77
2022-11-05T03:21:12.061Z,23.01
2022-11-05T03:24:03.858Z,23.13
2022-11-05T03:26:33.801Z,24.71
2022-11-05T03:29:07.143Z,22.80
2022-11-05T03:31:37.235Z,24.85
2022-11-05T03:34:07.108Z,24.83
2022-11-05T03:36:41.225Z,22.53
2022-11-05T03:39:13.233Z,22.52
2022-11-05T03:41:44.104Z,23.51
2022-11-05T03:44:15.957Z,23.57
2022-11-05T03:46:49.313Z,21.67
2022-11-05T03:49:21.526Z,23.47
2022-11-05T03:52:09.425Z,27.53
2022-11-05T03:54:36.699Z,24.02
2022-11-05T03:57:19.520Z,23.45
2022-11-05T03:59:49.267Z,24.04
2022-11-05T04:02:19.087Z,23.44
2022-11-05T04:04:46.670Z,23.03
2022-11-05T04:07:33.108Z,22.72
2022-11-05T04:10:18.395Z,23.30
2022-11-05T04:13:03.683Z,22.46
2022-11-05T04:15:30.387Z,23.73
2022-11-05T04:17:59.827Z,22.89
2022-11-05T04:20:45.419Z,22.69
2022-11-05T04:23:30.691Z,21.99
2022-11-05T04:25:57.634Z,25.18
2022-11-05T04:28:44.443Z,22.18
2022-11-05T04:31:11.410Z,23.31
2022-11-05T04:33:38.079Z,25.20
2022-11-05T04:36:04.943Z,22.69
2022-11-05T04:38:31.590Z,23.15
2022-11-05T04:41:14.611Z,22.37
2022-11-05T04:43:41.642Z,23.40
2022-11-05T04:46:08.508Z,23.23
2022-11-05T04:48:35.949Z,22.80
2022-11-05T04:51:03.157Z,22.72
2022-11-05T04:53:31.173Z,23.06
2022-11-05T04:56:18.977Z,24.05
2022-11-05T04:58:45.752Z,23.85
2022-11-05T05:01:15.714Z,23.73
2022-11-05T05:03:42.967Z,24.52
2022-11-05T05:06:10.376Z,24.42
2022-11-05T05:08:37.351Z,23.20
2022-11-05T05:11:06.365Z,23.50
2022-11-05T05:13:33.381Z,21.96
2022-11-05T05:16:04.629Z,23.34
2022-11-05T05:18:31.302Z,23.76
2022-11-05T05:21:17.466Z,22.95
2022-11-05T05:23:45.032Z,22.73
2022-11-05T05:26:12.052Z,24.25
2022-11-05T05:28:38.888Z,23.13
2022-11-05T05:31:05.643Z,22.37
2022-11-05T05:33:32.356Z,22.62
2022-11-05T05:36:05.745Z,22.71
2022-11-05T05:38:35.211Z,23.45
2022-11-05T05:41:02.184Z,22.30
2022-11-05T05:43:34.874Z,23.96
2022-11-05T05:46:06.089Z,22.89
2022-11-05T05:48:33.092Z,24.25
2022-11-05T05:51:06.631Z,27.08
2022-11-05T05:53:33.985Z,22.50
2022-11-05T05:56:00.854Z,23.52
2022-11-05T05:58:32.618Z,23.86
2022-11-05T06:01:04.835Z,22.87
2022-11-05T06:03:31.602Z,23.02
2022-11-05T06:06:09.648Z,22.84
2022-11-05T06:08:36.919Z,22.13
2022-11-05T06:11:04.538Z,22.88
2022-11-05T06:13:31.753Z,24.07
2022-11-05T06:16:06.407Z,23.65
2022-11-05T06:18:34.199Z,23.97
2022-11-05T06:21:09.185Z,22.74
2022-11-05T06:23:37.556Z,21.43
2022-11-05T06:26:07.121Z,21.69
2022-11-05T06:28:33.936Z,24.10
2022-11-05T06:31:01.891Z,23.71
2022-11-05T06:33:28.888Z,24.61
2022-11-05T06:36:00.535Z,22.92
2022-11-05T06:38:27.715Z,24.32
2022-11-05T06:40:54.419Z,25.08
2022-11-05T06:43:21.087Z,25.11
2022-11-05T06:45:47.790Z,25.89
2022-11-05T06:48:15.190Z,27.58
2022-11-05T06:50:44.940Z,25.99
2022-11-05T06:53:13.023Z,26.20
2022-11-05T06:55:40.688Z,25.25
2022-11-05T06:58:07.417Z,26.44
2022-11-05T07:00:34.170Z,24.31
2022-11-05T07:03:05.438Z,24.94
2022-11-05T07:05:32.883Z,27.07
2022-11-05T07:08:00.240Z,25.81
2022-11-05T07:10:26.987Z,26.19
2022-11-05T07:12:53.658Z,25.45
2022-11-05T07:15:20.488Z,27.65
2022-11-05T07:17:47.310Z,25.96
2022-11-05T07:20:14.330Z,25.30
2022-11-05T07:22:41.811Z,30.49
2022-11-05T07:25:08.861Z,26.04
2022-11-05T07:27:40.147Z,26.60
2022-11-05T07:30:09.318Z,26.20
2022-11-05T07:32:42.371Z,25.71
2022-11-05T07:35:09.578Z,26.16
2022-11-05T07:37:47.793Z,25.02
2022-11-05T07:40:17.881Z,24.37
2022-11-05T07:42:56.216Z,28.19
2022-11-05T07:45:24.143Z,27.44
2022-11-05T07:47:53.792Z,27.88
2022-11-05T07:50:22.735Z,26.30
2022-11-05T07:52:50.347Z,23.96
2022-11-05T07:55:18.580Z,25.63
2022-11-05T07:57:48.801Z,28.75
2022-11-05T08:00:20.101Z,25.43
2022-11-05T08:03:07.299Z,27.64
2022-11-05T08:05:40.428Z,28.25
2022-11-05T08:08:08.632Z,25.47
2022-11-05T08:10:36.767Z,25.22
2022-11-05T08:13:03.767Z,25.93
2022-11-05T08:15:31.496Z,27.02
2022-11-05T08:18:06.571Z,23.62
2022-11-05T08:20:34.572Z,28.02
2022-11-05T08:23:02.082Z,30.00
2022-11-05T08:25:29.535Z,26.84
2022-11-05T08:28:02.937Z,27.21
2022-11-05T08:30:30.292Z,27.67
2022-11-05T08:33:03.332Z,27.40
2022-11-05T08:35:31.259Z,26.61
2022-11-05T08:38:03.225Z,26.82
2022-11-05T08:40:32.217Z,27.11
2022-11-05T08:43:00.325Z,27.79
2022-11-05T08:45:28.932Z,26.14
2022-11-05T08:48:07.795Z,27.28
2022-11-05T08:50:34.578Z,25.99
2022-11-05T08:53:02.156Z,25.63
2022-11-05T08:55:29.185Z,26.74
2022-11-05T08:58:01.727Z,30.16
2022-11-05T09:00:30.538Z,27.14
2022-11-05T09:03:02.825Z,25.14
2022-11-05T09:05:31.616Z,25.71
2022-11-05T09:08:01.212Z,24.41
2022-11-05T09:10:28.944Z,25.38
2022-11-05T09:12:56.017Z,25.77
2022-11-05T09:15:23.537Z,25.30
2022-11-05T09:17:50.992Z,26.42
2022-11-05T09:20:18.497Z,31.27
2022-11-05T09:22:46.733Z,27.60
2022-11-05T09:25:16.417Z,25.36
2022-11-05T09:27:44.852Z,25.39
2022-11-05T09:30:14.222Z,24.84
2022-11-05T09:32:41.686Z,27.13
2022-11-05T09:35:09.390Z,26.09
2022-11-05T09:37:36.666Z,25.34
2022-11-05T09:40:03.860Z,25.23
2022-11-05T09:42:40.549Z,30.21
2022-11-05T09:45:15.968Z,25.27
2022-11-05T09:47:53.268Z,27.13
2022-11-05T09:50:25.900Z,24.54
2022-11-05T09:52:52.724Z,24.10
2022-11-05T09:55:33.549Z,24.73
2022-11-05T09:58:04.770Z,23.51
2022-11-05T10:00:33.203Z,24.83
2022-11-05T10:03:28.518Z,24.30
2022-11-05T10:06:07.822Z,25.80
2022-11-05T10:08:44.696Z,24.93
2022-11-05T10:11:19.745Z,24.59
2022-11-05T10:14:03.154Z,25.78
2022-11-05T10:16:34.082Z,25.41
2022-11-05T10:19:09.898Z,25.13
2022-11-05T10:22:04.761Z,25.30
2022-11-05T10:24:24.945Z,25.86
2022-11-05T10:26:53.659Z,24.55
2022-11-05T10:29:33.349Z,25.42
2022-11-05T10:32:05.669Z,27.02
2022-11-05T10:34:36.120Z,25.69
2022-11-05T10:37:03.732Z,27.36
2022-11-05T10:39:33.318Z,28.04
2022-11-05T10:42:26.224Z,25.08
2022-11-05T10:45:08.140Z,26.16
2022-11-05T10:48:05.352Z,26.60
2022-11-05T10:50:33.949Z,27.10
2022-11-05T10:53:18.686Z,25.23
2022-11-05T10:55:48.824Z,22.21
2022-11-05T10:58:15.487Z,23.85
2022-11-05T11:00:51.410Z,24.81
2022-11-05T11:03:53.886Z,23.00
2022-11-05T11:06:28.760Z,27.45
2022-11-05T11:08:58.713Z,22.69
2022-11-05T11:11:33.775Z,24.46
2022-11-05T11:14:14.716Z,23.47
2022-11-05T11:16:44.108Z,24.62
2022-11-05T11:19:31.825Z,23.80
2022-11-05T11:22:04.563Z,23.71
2022-11-05T11:24:38.423Z,24.17
2022-11-05T11:27:09.497Z,27.31
2022-11-05T11:29:42.813Z,23.29
2022-11-05T11:32:15.764Z,23.11
2022-11-05T11:34:45.305Z,26.16
2022-11-05T11:37:19.707Z,23.52
2022-11-05T11:39:53.535Z,27.50
2022-11-05T11:42:35.319Z,26.04
2022-11-05T11:45:32.076Z,25.85
2022-11-05T11:48:04.274Z,22.32
2022-11-05T11:50:38.638Z,27.90
2022-11-05T11:53:20.570Z,23.42
2022-11-05T11:56:06.304Z,23.23
2022-11-05T11:58:40.070Z,24.55
2022-11-05T12:01:09.637Z,24.24
2022-11-05T12:03:48.731Z,26.11
2022-11-05T12:06:18.468Z,24.41
2022-11-05T12:09:30.153Z,25.08
2022-11-05T12:12:09.768Z,25.82
2022-11-05T12:14:46.743Z,22.18
2022-11-05T12:17:28.213Z,27.23
2022-11-05T12:20:24.295Z,24.57
2022-11-05T12:23:06.117Z,24.92
2022-11-05T12:25:37.985Z,25.65
2022-11-05T12:29:04.642Z,23.78
2022-11-05T12:31:44.544Z,22.94
2022-11-05T12:34:29.680Z,24.00
2022-11-05T12:37:14.816Z,26.35
2022-11-05T12:39:54.842Z,23.85
2022-11-05T12:42:33.693Z,25.51
2022-11-05T12:45:04.913Z,25.99
2022-11-05T12:47:57.663Z,24.45
2022-11-05T12:50:42.557Z,25.02
2022-11-05T12:53:33.682Z,23.14
2022-11-05T12:56:04.759Z,27.60
2022-11-05T12:58:36.333Z,22.98
2022-11-05T13:01:08.802Z,24.19
2022-11-05T13:03:50.513Z,22.27
2022-11-05T13:06:35.192Z,23.52
2022-11-05T13:09:10.717Z,25.84
2022-11-05T13:11:49.773Z,25.94
2022-11-05T13:14:28.996Z,29.70
2022-11-05T13:17:16.886Z,25.41
2022-11-05T13:20:22.029Z,26.53
2022-11-05T13:22:55.681Z,25.73
2022-11-05T13:25:25.795Z,24.59
2022-11-05T13:28:17.900Z,23.17
2022-11-05T13:30:51.728Z,24.50
2022-11-05T13:33:23.678Z,24.17
2022-11-05T13:36:19.192Z,25.90
2022-11-05T13:38:59.450Z,25.54
2022-11-05T13:41:58.993Z,27.14
2022-11-05T13:44:48.038Z,25.27
2022-11-05T13:48:06.694Z,25.24
2022-11-05T13:50:48.323Z,24.44
2022-11-05T13:53:24.125Z,24.24
2022-11-05T13:56:13.609Z,23.57
2022-11-05T13:59:01.223Z,22.96
2022-11-05T14:01:45.219Z,24.69
2022-11-05T14:04:34.508Z,24.20
2022-11-05T14:07:17.510Z,25.71
2022-11-05T14:09:46.213Z,24.56
2022-11-05T14:12:25.167Z,24.71
2022-11-05T14:14:59.291Z,23.06
2022-11-05T14:17:31.337Z,23.81
2022-11-05T14:20:04.630Z,24.89
2022-11-05T14:22:31.542Z,23.14
2022-11-05T14:25:22.986Z,23.24
2022-11-05T14:27:52.709Z,24.39
2022-11-05T14:30:55.267Z,24.30
2022-11-05T14:33:24.515Z,23.31
2022-11-05T14:35:52.931Z,23.36
2022-11-05T14:38:26.125Z,23.59
2022-11-05T14:41:01.601Z,25.55
2022-11-05T14:43:32.354Z,26.15
2022-11-05T14:46:06.868Z,24.33
2022-11-05T14:48:41.996Z,21.71
2022-11-05T14:51:26.913Z,26.14
2022-11-05T14:54:05.064Z,24.55
2022-11-05T14:56:55.851Z,27.47
2022-11-05T14:59:29.169Z,23.06
2022-11-05T15:02:24.081Z,23.69
2022-11-05T15:04:53.177Z,26.03
2022-11-05T15:07:34.047Z,22.46
2022-11-05T15:10:10.609Z,22.36
2022-11-05T15:12:42.293Z,23.34
2022-11-05T15:15:27.902Z,24.88
2022-11-05T15:18:15.796Z,25.52
2022-11-05T15:20:48.395Z,26.89
2022-11-05T15:23:20.725Z,25.37
2022-11-05T15:25:53.505Z,24.42
2022-11-05T15:28:42.167Z,28.67
2022-11-05T15:31:14.554Z,22.18
2022-11-05T15:33:44.329Z,22.66
2022-11-05T15:36:26.249Z,23.68
2022-11-05T15:39:22.900Z,24.71
2022-11-05T15:41:40.696Z,23.69
2022-11-05T15:44:35.390Z,21.85
2022-11-05T15:47:14.391Z,24.34
2022-11-05T15:49:44.160Z,22.84
2022-11-05T15:52:12.873Z,22.67
2022-11-05T15:54:40.163Z,23.07
2022-11-05T15:57:26.651Z,23.43
2022-11-05T15:59:53.754Z,23.60
2022-11-05T16:02:26.790Z,25.34
2022-11-05T16:04:53.653Z,24.64
2022-11-05T16:07:21.855Z,25.32
2022-11-05T16:09:56.124Z,25.03
2022-11-05T16:12:33.183Z,22.15
2022-11-05T16:15:18.707Z,24.36
2022-11-05T16:17:53.391Z,22.58
2022-11-05T16:20:24.053Z,23.72
2022-11-05T16:23:24.649Z,24.13
2022-11-05T16:25:52.158Z,22.19
2022-11-05T16:28:27.500Z,22.15
2022-11-05T16:31:05.820Z,22.07
2022-11-05T16:33:45.313Z,22.09
2022-11-05T16:36:12.735Z,22.63
2022-11-05T16:38:39.651Z,22.01
2022-11-05T16:41:07.016Z,20.90
2022-11-05T16:43:35.071Z,20.59
2022-11-05T16:46:02.295Z,21.73
2022-11-05T16:48:29.040Z,20.93
2022-11-05T16:50:55.895Z,22.05
2022-11-05T16:53:22.929Z,20.17
2022-11-05T16:55:50.132Z,22.67
2022-11-05T16:58:22.916Z,23.13
2022-11-05T17:00:52.245Z,22.05
2022-11-05T17:03:19.061Z,20.76
2022-11-05T17:05:46.584Z,21.07
2022-11-05T17:08:13.708Z,21.32
2022-11-05T17:10:40.785Z,20.45
2022-11-05T17:13:10.047Z,19.79
2022-11-05T17:15:37.213Z,20.37
2022-11-05T17:18:05.295Z,20.65
2022-11-05T17:20:40.739Z,20.62
2022-11-05T17:23:16.438Z,20.30
2022-11-05T17:25:46.741Z,21.38
2022-11-05T17:28:14.014Z,20.87
2022-11-05T17:30:41.852Z,21.21
2022-11-05T17:33:11.340Z,20.70
2022-11-05T17:35:42.305Z,20.73
2022-11-05T17:38:09.887Z,20.45
2022-11-05T17:40:37.768Z,23.53
2022-11-05T17:43:05.832Z,22.54
2022-11-05T17:45:33.827Z,22.11
2022-11-05T17:48:03.283Z,20.51
2022-11-05T17:50:30.277Z,21.63
2022-11-05T17:52:57.010Z,23.77
2022-11-05T17:55:23.690Z,20.58
2022-11-05T17:57:52.011Z,21.53
2022-11-05T18:00:23.466Z,21.74
2022-11-05T18:02:52.963Z,22.48
2022-11-05T18:05:20.972Z,24.73
2022-11-05T18:07:48.830Z,21.44
2022-11-05T18:10:16.156Z,23.19
2022-11-05T18:12:43.504Z,23.34
2022-11-05T18:15:10.665Z,21.71
2022-11-05T18:17:38.212Z,22.83
2022-11-05T18:20:14.174Z,24.73
2022-11-05T18:22:44.771Z,22.63
2022-11-05T18:25:13.337Z,21.96
2022-11-05T18:27:40.603Z,22.74
2022-11-05T18:30:08.586Z,22.59
2022-11-05T18:32:36.105Z,26.38
2022-11-05T18:35:03.225Z,25.59
2022-11-05T18:37:29.889Z,24.72
2022-11-05T18:39:56.591Z,23.89
2022-11-05T18:42:25.323Z,24.91
2022-11-05T18:44:52.838Z,23.08
2022-11-05T18:47:19.651Z,23.09
2022-11-05T18:49:46.332Z,22.29
2022-11-05T18:52:13.273Z,24.65
2022-11-05T18:54:39.993Z,22.64
2022-11-05T18:57:07.204Z,22.63
2022-11-05T18:59:39.120Z,22.30
2022-11-05T19:02:08.885Z,24.31
2022-11-05T19:04:38.235Z,21.61
2022-11-05T19:07:06.053Z,22.09
2022-11-05T19:09:34.692Z,21.80
2022-11-05T19:12:02.402Z,22.69
2022-11-05T19:14:30.174Z,22.04
2022-11-05T19:17:00.798Z,23.81
2022-11-05T19:19:27.681Z,21.70
2022-11-05T19:21:54.629Z,25.51
2022-11-05T19:24:21.610Z,22.62
2022-11-05T19:26:48.622Z,24.31
2022-11-05T19:29:15.314Z,22.17
2022-11-05T19:31:42.049Z,24.73
2022-11-05T19:34:09.052Z,21.67
2022-11-05T19:36:35.894Z,21.75
2022-11-05T19:39:08.983Z,21.63
2022-11-05T19:41:35.918Z,21.58
2022-11-05T19:44:03.970Z,20.82
2022-11-05T19:46:31.627Z,21.09
2022-11-05T19:49:00.568Z,22.40
2022-11-05T19:51:29.432Z,21.42
2022-11-05T19:53:56.565Z,20.81
2022-11-05T19:56:25.942Z,20.78
2022-11-05T19:58:54.300Z,20.24
2022-11-05T20:01:23.356Z,20.28
2022-11-05T20:03:51.065Z,21.45
2022-11-05T20:06:21.326Z,21.17
2022-11-05T20:11:40.113Z,22.58
2022-11-05T20:14:09.263Z,21.00
2022-11-05T20:16:40.383Z,21.41
2022-11-05T20:19:10.800Z,22.16
2022-11-05T20:21:39.639Z,22.45
2022-11-05T20:24:07.422Z,21.65
2022-11-05T20:26:35.008Z,20.89
2022-11-05T20:29:01.799Z,20.77
2022-11-05T20:31:28.592Z,22.08
2022-11-05T20:33:55.671Z,21.50
2022-11-05T20:36:24.994Z,22.43
2022-11-05T20:38:58.065Z,22.70
2022-11-05T20:41:25.984Z,22.16
2022-11-05T20:43:54.791Z,20.84
2022-11-05T20:46:24.311Z,20.90
2022-11-05T20:48:52.597Z,21.22
2022-11-05T20:51:21.834Z,21.61
2022-11-05T20:53:55.024Z,20.66
2022-11-05T20:56:27.635Z,21.88
2022-11-05T20:58:58.503Z,23.09
2022-11-05T21:01:27.771Z,22.15
2022-11-05T21:03:55.137Z,23.63
2022-11-05T21:06:22.798Z,22.03
2022-11-05T21:08:51.701Z,22.70
2022-11-05T21:11:20.374Z,22.03
2022-11-05T21:13:48.054Z,21.41
2022-11-05T21:16:18.841Z,23.29
2022-11-05T21:18:46.770Z,22.08
2022-11-05T21:21:17.086Z,23.46
2022-11-05T21:23:43.852Z,24.08
2022-11-05T21:26:13.337Z,22.78
2022-11-05T21:28:41.382Z,22.11
2022-11-05T21:31:09.631Z,25.63
2022-11-05T21:33:38.643Z,22.98
2022-11-05T21:36:12.235Z,23.89
2022-11-05T21:38:40.841Z,22.22
2022-11-05T21:41:10.589Z,22.35
2022-11-05T21:43:40.061Z,23.17
2022-11-05T21:46:06.773Z,22.38
2022-11-05T21:48:34.058Z,20.41
2022-11-05T21:51:19.857Z,22.20
2022-11-05T21:54:05.306Z,21.46
2022-11-05T21:56:50.540Z,21.71
2022-11-05T21:59:41.253Z,21.72
2022-11-05T22:02:11.271Z,22.22
2022-11-05T22:04:43.506Z,21.69
2022-11-05T22:07:13.037Z,22.38
2022-11-05T22:09:40.114Z,23.92
2022-11-05T22:12:07.594Z,21.37
2022-11-05T22:14:35.128Z,22.50
2022-11-05T22:17:01.848Z,21.05
2022-11-05T22:19:28.725Z,21.40
2022-11-05T22:21:55.603Z,21.95
2022-11-05T22:24:23.403Z,21.21
2022-11-05T22:26:50.461Z,20.88
2022-11-05T22:29:17.497Z,21.97
2022-11-05T22:31:44.313Z,21.65
2022-11-05T22:34:11.653Z,22.89
2022-11-05T22:36:38.745Z,22.07
2022-11-05T22:39:06.097Z,22.72
2022-11-05T22:41:33.197Z,22.41
2022-11-05T22:43:59.880Z,21.92
2022-11-05T22:46:27.354Z,21.48
2022-11-05T22:48:55.536Z,21.03
2022-11-05T22:51:25.716Z,21.05
2022-11-05T22:53:54.958Z,21.76
2022-11-05T22:56:24.648Z,22.77
2022-11-05T22:58:52.064Z,23.31
2022-11-05T23:01:20.583Z,24.88
2022-11-05T23:03:49.452Z,22.50
2022-11-05T23:06:40.806Z,23.64
2022-11-05T23:09:36.857Z,23.55
2022-11-05T23:12:06.055Z,23.98
2022-11-05T23:14:33.016Z,23.09
2022-11-05T23:17:17.992Z,21.73
2022-11-05T23:20:03.445Z,21.96
2022-11-05T23:22:49.673Z,22.33
2022-11-05T23:25:19.815Z,20.90
2022-11-05T23:27:49.283Z,21.58
2022-11-05T23:30:25.221Z,20.87
2022-11-05T23:32:56.148Z,20.96
2022-11-05T23:35:43.008Z,20.79
2022-11-05T23:38:28.810Z,20.49
2022-11-05T23:41:19.748Z,21.01
2022-11-05T23:44:05.072Z,21.53
2022-11-05T23:46:50.803Z,21.92
2022-11-05T23:49:17.965Z,24.46
2022-11-05T23:51:44.768Z,22.47
2022-11-05T23:54:11.651Z,22.74
2022-11-05T23:56:38.602Z,22.26
2022-11-05T23:59:06.301Z,22.01
